Time,TemperatureF,DewpointF,PressureIn,WindDirection,WindDirectionDegrees,WindSpeedMPH,WindSpeedGustMPH,Humidity,HourlyPrecipIn,Conditions,Clouds,dailyrainin,SoftwareType,DateUTC
2014-08-21 00:01:00,78.3,75.0,30.13,East,80,1.0,1.0,90,0.00,,,0.00,weatherlink.com 1.10,2014-08-21 04:01:00,
2014-08-21 00:30:00,76.2,74.0,30.13,East,80,0.0,0.0,93,0.00,,,0.00,weatherlink.com 1.10,2014-08-21 04:30:00,
2014-08-21 01:00:00,75.5,73.0,30.13,East,80,1.0,2.0,94,0.00,,,0.00,weatherlink.com 1.10,2014-08-21 05:00:00,
2014-08-21 01:32:00,75.5,73.0,30.13,East,80,0.0,1.0,95,0.00,,,0.00,weatherlink.com 1.10,2014-08-21 05:32:00,
2014-08-21 02:02:00,75.0,73.0,30.12,East,80,0.0,1.0,95,0.00,,,0.00,weatherlink.com 1.10,2014-08-21 06:02:00,
2014-08-21 02:30:00,74.4,73.0,30.12,East,80,0.0,1.0,96,0.00,,,0.00,weatherlink.com 1.10,2014-08-21 06:30:00,
2014-08-21 03:02:00,74.6,73.0,30.12,East,80,0.0,0.0,96,0.00,,,0.00,weatherlink.com 1.10,2014-08-21 07:02:00,
2014-08-21 03:30:00,73.9,72.0,30.11,East,80,0.0,1.0,96,0.00,,,0.00,weatherlink.com 1.10,2014-08-21 07:30:00,
2014-08-21 04:01:00,73.5,72.0,30.10,East,80,0.0,2.0,97,0.00,,,0.00,weatherlink.com 1.10,2014-08-21 08:01:00,
2014-08-21 04:31:00,73.7,72.0,30.10,East,80,0.0,0.0,97,0.00,,,0.00,weatherlink.com 1.10,2014-08-21 08:31:00,
2014-08-21 05:01:00,73.3,72.0,30.10,East,80,1.0,1.0,97,0.00,,,0.00,weatherlink.com 1.10,2014-08-21 09:01:00,
2014-08-21 05:31:00,72.9,71.0,30.10,East,80,0.0,0.0,97,0.00,,,0.00,weatherlink.com 1.10,2014-08-21 09:31:00,
2014-08-21 06:01:00,72.8,71.0,30.10,East,80,0.0,0.0,97,0.00,,,0.00,weatherlink.com 1.10,2014-08-21 10:01:00,
2014-08-21 06:31:00,72.6,71.0,30.12,East,80,0.0,2.0,97,0.00,,,0.00,weatherlink.com 1.10,2014-08-21 10:31:00,
2014-08-21 07:02:00,72.7,71.0,30.13,East,80,0.0,0.0,97,0.00,,,0.00,weatherlink.com 1.10,2014-08-21 11:02:00,
2014-08-21 07:30:00,73.7,73.0,30.14,East,80,0.0,1.0,98,0.00,,,0.00,weatherlink.com 1.10,2014-08-21 11:30:00,
2014-08-21 08:01:00,76.6,75.0,30.14,East,80,0.0,1.0,98,0.00,,,0.00,weatherlink.com 1.10,2014-08-21 12:01:00,
2014-08-21 08:31:00,81.0,77.0,30.16,NE,43,2.0,5.0,90,0.00,,,0.00,weatherlink.com 1.10,2014-08-21 12:31:00,
2014-08-21 09:01:00,83.0,78.0,30.16,North,5,3.0,6.0,86,0.00,,,0.00,weatherlink.com 1.10,2014-08-21 13:01:00,
2014-08-21 09:31:00,85.3,78.0,30.17,NNE,30,4.0,9.0,81,0.00,,,0.00,weatherlink.com 1.10,2014-08-21 13:31:00,
2014-08-21 10:01:00,86.2,78.0,30.16,North,355,4.0,8.0,77,0.00,,,0.00,weatherlink.com 1.10,2014-08-21 14:01:00,
2014-08-21 10:31:00,87.2,77.0,30.16,NNE,31,4.0,9.0,73,0.00,,,0.00,weatherlink.com 1.10,2014-08-21 14:31:00,
2014-08-21 11:01:00,88.9,76.0,30.17,North,360,4.0,10.0,68,0.00,,,0.00,weatherlink.com 1.10,2014-08-21 15:01:00,
2014-08-21 11:30:00,88.6,80.0,30.17,NW,326,4.0,6.0,76,0.00,,,0.00,weatherlink.com 1.10,2014-08-21 15:30:00,
2014-08-21 12:01:00,89.3,76.0,30.16,North,360,2.0,4.0,67,0.00,,,0.00,weatherlink.com 1.10,2014-08-21 16:01:00,
2014-08-21 12:31:00,90.8,78.0,30.15,NW,304,3.0,6.0,68,0.00,,,0.00,weatherlink.com 1.10,2014-08-21 16:31:00,
2014-08-21 13:01:00,88.3,75.0,30.14,NNE,21,1.0,5.0,67,0.00,,,0.00,weatherlink.com 1.10,2014-08-21 17:01:00,
2014-08-21 13:31:00,88.8,78.0,30.12,North,360,5.0,13.0,71,0.00,,,0.00,weatherlink.com 1.10,2014-08-21 17:31:00,
2014-08-21 14:01:00,90.8,79.0,30.12,ENE,68,5.0,11.0,69,0.00,,,0.00,weatherlink.com 1.10,2014-08-21 18:01:00,